Time;durP1;ratioP1;P1;durP2;ratioP2;P2;SDS_P1;SDS_P2;PMS_P1;PMS_P2;Temp;Humidity;BMP_temperature;BMP_pressure;BME280_temperature;BME280_humidity;BME280_pressure;Samples;Min_cycle;Max_cycle;Signal;HPM_P1;HPM_P2
2022/05/12 00:01:21;;;;;;;8.52;6.32;;;;;;;;;;5067182;28;20056;-48
2022/05/12 00:03:47;;;;;;;7.82;5.78;;;;;;;;;;5063238;28;20028;-48
2022/05/12 00:06:13;;;;;;;8.55;5.95;;;;;;;;;;5060262;28;20036;-51
2022/05/12 00:08:39;;;;;;;6.15;5.38;;;;;;;;;;5066071;28;20029;-51
2022/05/12 00:11:05;;;;;;;8.18;6.50;;;;;;;;;;5067347;28;20531;-50
2022/05/12 00:13:31;;;;;;;10.15;6.05;;;;;;;;;;5059847;28;20033;-48
2022/05/12 00:15:58;;;;;;;7.75;5.43;;;;;;;;;;5063653;28;20029;-47
2022/05/12 00:18:24;;;;;;;8.32;5.47;;;;;;;;;;5061437;28;20041;-49
2022/05/12 00:20:51;;;;;;;7.78;5.22;;;;;;;;;;5076523;28;20492;-49
2022/05/12 00:23:26;;;;;;;9.95;6.35;;;;;;;;;;5065220;28;20389;-47
2022/05/12 00:25:52;;;;;;;8.18;6.00;;;;;;;;;;5065663;28;20028;-47
2022/05/12 00:28:19;;;;;;;9.15;6.25;;;;;;;;;;5055401;28;20080;-47
2022/05/12 00:30:46;;;;;;;8.75;6.68;;;;;;;;;;5071695;28;20182;-48
2022/05/12 00:33:12;;;;;;;8.05;5.80;;;;;;;;;;5059258;28;20253;-52
2022/05/12 00:35:38;;;;;;;9.68;5.97;;;;;;;;;;5065181;28;20023;-52
2022/05/12 00:38:04;;;;;;;7.50;5.95;;;;;;;;;;5067690;28;20039;-46
2022/05/12 00:40:30;;;;;;;9.23;5.75;;;;;;;;;;5056675;28;20032;-52
2022/05/12 00:42:58;;;;;;;7.93;5.22;;;;;;;;;;5063972;28;20036;-51
2022/05/12 00:45:25;;;;;;;7.95;6.10;;;;;;;;;;5060423;28;20442;-51
2022/05/12 00:47:51;;;;;;;9.70;5.78;;;;;;;;;;5065472;28;20384;-47
2022/05/12 00:50:17;;;;;;;9.55;6.75;;;;;;;;;;5058721;28;20033;-48
2022/05/12 00:52:44;;;;;;;10.15;5.85;;;;;;;;;;5061393;28;20391;-47
2022/05/12 00:55:13;;;;;;;8.82;5.38;;;;;;;;;;5072986;28;20075;-47
2022/05/12 00:57:40;;;;;;;7.80;5.53;;;;;;;;;;5063926;28;20112;-47
2022/05/12 01:00:08;;;;;;;9.63;5.38;;;;;;;;;;5060346;28;20020;-48
2022/05/12 01:02:36;;;;;;;6.70;5.05;;;;;;;;;;5067359;28;20028;-56
2022/05/12 01:05:03;;;;;;;8.73;5.45;;;;;;;;;;5066265;28;20484;-56
2022/05/12 01:07:29;;;;;;;10.02;5.78;;;;;;;;;;5064862;28;20058;-56
2022/05/12 01:09:55;;;;;;;8.45;5.80;;;;;;;;;;5055738;28;20052;-55
2022/05/12 01:12:22;;;;;;;6.22;4.97;;;;;;;;;;5068742;28;20041;-55
2022/05/12 01:14:48;;;;;;;9.38;5.82;;;;;;;;;;5061299;28;20033;-55
2022/05/12 01:17:14;;;;;;;8.15;6.53;;;;;;;;;;5058575;28;20028;-55
2022/05/12 01:19:40;;;;;;;9.05;6.18;;;;;;;;;;5068771;28;20063;-55
2022/05/12 01:22:08;;;;;;;12.73;6.72;;;;;;;;;;5067307;28;20119;-54
2022/05/12 01:24:36;;;;;;;9.18;6.45;;;;;;;;;;5061977;28;20028;-55
2022/05/12 01:27:22;;;;;;;10.15;6.50;;;;;;;;;;5066655;28;20036;-54
2022/05/12 01:29:49;;;;;;;12.27;6.18;;;;;;;;;;5057502;28;20044;-57
2022/05/12 01:32:16;;;;;;;8.68;5.35;;;;;;;;;;5058657;28;20610;-54
2022/05/12 01:34:42;;;;;;;9.38;5.50;;;;;;;;;;5067480;28;20029;-55
2022/05/12 01:37:08;;;;;;;5.93;4.80;;;;;;;;;;5070109;28;20380;-56
2022/05/12 01:39:35;;;;;;;9.02;5.97;;;;;;;;;;5068491;28;20039;-55
2022/05/12 01:42:02;;;;;;;6.25;5.10;;;;;;;;;;5063279;28;20388;-56
2022/05/12 01:44:28;;;;;;;7.68;4.95;;;;;;;;;;5060569;28;20063;-54
2022/05/12 01:46:54;;;;;;;7.60;5.38;;;;;;;;;;5060326;28;20040;-56
2022/05/12 01:49:20;;;;;;;7.15;5.60;;;;;;;;;;5061277;28;20031;-55
2022/05/12 01:51:46;;;;;;;8.98;5.43;;;;;;;;;;5058735;28;20486;-56
2022/05/12 01:54:12;;;;;;;9.38;5.10;;;;;;;;;;5063124;28;20021;-56
2022/05/12 01:56:38;;;;;;;7.38;5.32;;;;;;;;;;5068147;28;20369;-56
2022/05/12 01:59:04;;;;;;;9.30;5.10;;;;;;;;;;5066829;28;20032;-56
2022/05/12 02:01:30;;;;;;;10.43;5.20;;;;;;;;;;5064269;28;20036;-56
2022/05/12 02:03:56;;;;;;;7.20;4.38;;;;;;;;;;5067979;28;20032;-55
2022/05/12 02:06:22;;;;;;;18.92;4.78;;;;;;;;;;5063806;28;20029;-55
2022/05/12 02:08:48;;;;;;;8.52;5.00;;;;;;;;;;5062879;28;20107;-54
2022/05/12 02:11:14;;;;;;;6.22;3.80;;;;;;;;;;5060765;28;20036;-53
2022/05/12 02:13:40;;;;;;;5.25;3.03;;;;;;;;;;5049052;28;20033;-54
2022/05/12 02:16:06;;;;;;;8.52;3.65;;;;;;;;;;5059344;28;20032;-57
2022/05/12 02:18:32;;;;;;;7.38;3.70;;;;;;;;;;5066031;28;20028;-55
2022/05/12 02:20:58;;;;;;;11.20;3.38;;;;;;;;;;5063900;28;20035;-55
2022/05/12 02:23:24;;;;;;;4.57;3.17;;;;;;;;;;5059131;28;20078;-56
2022/05/12 02:25:50;;;;;;;7.38;4.07;;;;;;;;;;5061993;28;20033;-55
2022/05/12 02:28:16;;;;;;;3.90;3.25;;;;;;;;;;5061597;28;20550;-52
2022/05/12 02:30:43;;;;;;;7.03;3.13;;;;;;;;;;5065752;28;20024;-54
2022/05/12 02:33:09;;;;;;;12.13;3.90;;;;;;;;;;5059140;28;20124;-53
2022/05/12 02:35:35;;;;;;;8.73;3.92;;;;;;;;;;5071387;28;20082;-53
2022/05/12 02:38:02;;;;;;;7.38;3.92;;;;;;;;;;5058547;28;20037;-54
2022/05/12 02:40:28;;;;;;;6.28;3.92;;;;;;;;;;5065761;28;20514;-56
2022/05/12 02:42:54;;;;;;;7.93;4.00;;;;;;;;;;5064197;28;20037;-56
2022/05/12 02:45:20;;;;;;;9.18;4.00;;;;;;;;;;5066195;28;20488;-56
2022/05/12 02:47:46;;;;;;;8.18;4.00;;;;;;;;;;5066696;28;20040;-56
2022/05/12 02:50:13;;;;;;;6.72;3.85;;;;;;;;;;5059156;28;20031;-56
2022/05/12 02:52:39;;;;;;;8.63;4.40;;;;;;;;;;5063120;28;20123;-55
2022/05/12 02:55:05;;;;;;;10.05;4.68;;;;;;;;;;5065439;28;20078;-55
2022/05/12 02:57:32;;;;;;;8.60;4.22;;;;;;;;;;5061352;28;20021;-56
2022/05/12 02:59:58;;;;;;;7.70;4.93;;;;;;;;;;5059211;28;20497;-55
2022/05/12 03:02:24;;;;;;;7.68;4.15;;;;;;;;;;5067139;28;20032;-57
2022/05/12 03:04:50;;;;;;;8.77;4.35;;;;;;;;;;5055597;28;20085;-54
2022/05/12 03:07:17;;;;;;;9.80;4.50;;;;;;;;;;5061144;28;20036;-54
2022/05/12 03:09:43;;;;;;;8.02;4.30;;;;;;;;;;5063766;28;20042;-55
2022/05/12 03:12:09;;;;;;;9.43;4.47;;;;;;;;;;5053841;28;20542;-56
2022/05/12 03:14:35;;;;;;;6.32;4.50;;;;;;;;;;5060343;28;20103;-56
2022/05/12 03:17:01;;;;;;;10.45;5.22;;;;;;;;;;5037986;28;20533;-56
2022/05/12 03:19:27;;;;;;;8.57;4.35;;;;;;;;;;5059826;28;20120;-56
2022/05/12 03:21:53;;;;;;;15.15;4.50;;;;;;;;;;5051525;28;20025;-54
2022/05/12 03:24:19;;;;;;;9.55;5.40;;;;;;;;;;5059467;28;20035;-55
2022/05/12 03:26:46;;;;;;;10.18;4.95;;;;;;;;;;5055601;28;20112;-54
2022/05/12 03:29:12;;;;;;;8.63;4.40;;;;;;;;;;5061422;28;20029;-55
2022/05/12 03:31:38;;;;;;;7.43;5.00;;;;;;;;;;5062812;28;20444;-50
2022/05/12 03:34:06;;;;;;;8.68;5.05;;;;;;;;;;5054362;28;20105;-55
2022/05/12 03:36:35;;;;;;;9.52;4.97;;;;;;;;;;5062129;28;20099;-54
2022/05/12 03:39:01;;;;;;;7.07;4.45;;;;;;;;;;5065822;28;20070;-54
2022/05/12 03:41:27;;;;;;;9.32;4.28;;;;;;;;;;5058837;28;20044;-55
2022/05/12 03:46:38;;;;;;;12.02;4.80;;;;;;;;;;5069871;28;20094;-53
2022/05/12 03:49:04;;;;;;;10.20;4.50;;;;;;;;;;5066920;28;20447;-55
2022/05/12 03:51:29;;;;;;;9.20;4.50;;;;;;;;;;5063940;28;20062;-55
2022/05/12 03:53:55;;;;;;;10.45;4.88;;;;;;;;;;5072605;28;20029;-55
2022/05/12 03:56:21;;;;;;;10.23;4.50;;;;;;;;;;5059585;28;20029;-53
2022/05/12 03:58:48;;;;;;;8.43;4.40;;;;;;;;;;5064875;28;20036;-53
2022/05/12 04:01:14;;;;;;;9.60;4.78;;;;;;;;;;5062665;28;20103;-55
2022/05/12 04:03:41;;;;;;;7.80;4.60;;;;;;;;;;5065110;28;20025;-56
2022/05/12 04:06:07;;;;;;;8.10;4.30;;;;;;;;;;5064332;28;20099;-56
2022/05/12 04:08:33;;;;;;;6.80;3.78;;;;;;;;;;5070574;28;20036;-55
2022/05/12 04:11:00;;;;;;;7.50;3.95;;;;;;;;;;5071171;28;20020;-56
2022/05/12 04:13:26;;;;;;;8.77;3.90;;;;;;;;;;5057550;28;20059;-57
2022/05/12 04:15:53;;;;;;;7.75;3.92;;;;;;;;;;5071519;28;20039;-56
2022/05/12 04:18:19;;;;;;;11.43;3.70;;;;;;;;;;5062324;28;20124;-53
2022/05/12 04:20:45;;;;;;;9.32;3.92;;;;;;;;;;5063507;28;20048;-53
2022/05/12 04:23:11;;;;;;;12.02;3.92;;;;;;;;;;5061114;28;20413;-55
2022/05/12 04:25:38;;;;;;;6.22;3.42;;;;;;;;;;5067997;28;20033;-56
2022/05/12 04:28:04;;;;;;;9.50;3.50;;;;;;;;;;5058563;28;20493;-53
2022/05/12 04:30:30;;;;;;;6.35;3.50;;;;;;;;;;5066632;28;20020;-56
2022/05/12 04:35:09;;;;;;;11.38;3.67;;;;;;;;;;5072976;28;20024;-54
2022/05/12 04:35:46;;;;;;;7.25;2.97;;;;;;;;;;5068786;28;20120;-56
2022/05/12 04:38:12;;;;;;;8.82;3.78;;;;;;;;;;5045345;28;20107;-56
2022/05/12 04:40:38;;;;;;;7.63;3.30;;;;;;;;;;5068231;28;20041;-56
2022/05/12 04:43:04;;;;;;;5.50;2.92;;;;;;;;;;5060709;28;20098;-55
2022/05/12 04:45:31;;;;;;;5.95;3.20;;;;;;;;;;5062417;28;20111;-55
2022/05/12 04:47:57;;;;;;;5.53;3.30;;;;;;;;;;5065461;28;20481;-54
2022/05/12 04:50:26;;;;;;;7.15;3.28;;;;;;;;;;5062690;28;20093;-56
2022/05/12 04:52:52;;;;;;;6.15;3.20;;;;;;;;;;5063335;28;20791;-53
2022/05/12 04:55:18;;;;;;;6.55;2.90;;;;;;;;;;5056504;28;20021;-53
2022/05/12 04:57:45;;;;;;;8.23;3.47;;;;;;;;;;5056791;28;20059;-53
2022/05/12 05:00:14;;;;;;;5.05;2.70;;;;;;;;;;5064286;28;20029;-55
2022/05/12 05:02:40;;;;;;;5.35;2.78;;;;;;;;;;5056976;28;20031;-50
2022/05/12 05:05:07;;;;;;;7.53;2.88;;;;;;;;;;5063627;28;20032;-52
2022/05/12 05:07:33;;;;;;;7.03;3.40;;;;;;;;;;5057986;28;20087;-51
2022/05/12 05:09:59;;;;;;;8.98;2.75;;;;;;;;;;5058137;28;20098;-53
2022/05/12 05:12:25;;;;;;;5.85;3.00;;;;;;;;;;5070003;28;20032;-52
2022/05/12 05:14:51;;;;;;;4.35;2.97;;;;;;;;;;5064274;28;20117;-51
2022/05/12 05:17:17;;;;;;;6.05;2.70;;;;;;;;;;5059848;28;20472;-50
2022/05/12 05:19:43;;;;;;;6.80;3.17;;;;;;;;;;5070340;28;20040;-51
2022/05/12 05:22:09;;;;;;;6.03;2.00;;;;;;;;;;5061691;28;20400;-54
2022/05/12 05:24:36;;;;;;;8.77;2.17;;;;;;;;;;5066975;28;20063;-51
2022/05/12 05:27:02;;;;;;;5.88;2.03;;;;;;;;;;5066514;28;20051;-51
2022/05/12 05:29:28;;;;;;;3.00;1.65;;;;;;;;;;5059584;28;20032;-51
2022/05/12 05:31:54;;;;;;;3.00;1.48;;;;;;;;;;5068543;28;20104;-52
2022/05/12 05:34:20;;;;;;;5.22;1.25;;;;;;;;;;5063076;28;20028;-51
2022/05/12 05:36:46;;;;;;;7.68;1.55;;;;;;;;;;5057108;28;20025;-52
2022/05/12 05:39:19;;;;;;;5.75;1.23;;;;;;;;;;5082321;28;20032;-52
2022/05/12 05:41:45;;;;;;;4.90;1.38;;;;;;;;;;5060896;28;20035;-50
2022/05/12 05:44:11;;;;;;;2.80;1.13;;;;;;;;;;5056022;28;20032;-54
2022/05/12 05:46:37;;;;;;;4.53;1.20;;;;;;;;;;5057127;28;20024;-52
2022/05/12 05:49:03;;;;;;;4.05;1.25;;;;;;;;;;5063309;28;20040;-51
2022/05/12 05:54:14;;;;;;;2.53;0.90;;;;;;;;;;5063006;28;20087;-51
2022/05/12 05:56:40;;;;;;;2.97;1.10;;;;;;;;;;5069023;28;20017;-50
2022/05/12 05:59:06;;;;;;;2.55;0.98;;;;;;;;;;5065998;28;20043;-53
2022/05/12 06:01:32;;;;;;;2.33;0.88;;;;;;;;;;5056379;28;20143;-52
2022/05/12 06:03:58;;;;;;;2.17;0.90;;;;;;;;;;5057302;28;20056;-53
2022/05/12 06:06:24;;;;;;;3.30;1.10;;;;;;;;;;5061480;28;20032;-52
2022/05/12 06:08:50;;;;;;;1.90;0.90;;;;;;;;;;5069026;28;20119;-51
2022/05/12 06:11:16;;;;;;;3.83;1.10;;;;;;;;;;5060385;28;20094;-50
2022/05/12 06:13:44;;;;;;;3.45;1.25;;;;;;;;;;5058743;28;20025;-54
2022/05/12 06:16:10;;;;;;;9.63;1.42;;;;;;;;;;5059988;28;20070;-53
2022/05/12 06:18:37;;;;;;;3.28;0.90;;;;;;;;;;5058817;28;20144;-51
2022/05/12 06:21:09;;;;;;;5.10;0.90;;;;;;;;;;5055265;28;20037;-50
2022/05/12 06:23:35;;;;;;;3.35;1.02;;;;;;;;;;5054903;28;20071;-54
2022/05/12 06:26:01;;;;;;;1.00;0.65;;;;;;;;;;5060213;28;20021;-52
2022/05/12 06:28:28;;;;;;;3.58;0.60;;;;;;;;;;5068581;28;20407;-51
2022/05/12 06:30:54;;;;;;;5.50;0.82;;;;;;;;;;5065568;28;20059;-53
2022/05/12 06:33:20;;;;;;;1.55;0.50;;;;;;;;;;5064444;28;20052;-53
2022/05/12 06:35:48;;;;;;;2.22;0.95;;;;;;;;;;5062522;28;20495;-54
2022/05/12 06:38:14;;;;;;;1.65;0.50;;;;;;;;;;5061235;28;20037;-50
2022/05/12 06:40:40;;;;;;;2.40;0.75;;;;;;;;;;5066915;28;20051;-52
2022/05/12 06:43:08;;;;;;;3.45;1.00;;;;;;;;;;5060341;28;20036;-51
2022/05/12 06:45:34;;;;;;;2.75;0.60;;;;;;;;;;5070145;28;20033;-50
2022/05/12 06:48:01;;;;;;;2.20;0.70;;;;;;;;;;5059801;28;20473;-53
2022/05/12 06:50:28;;;;;;;2.15;0.52;;;;;;;;;;5064600;28;20036;-54
2022/05/12 06:52:54;;;;;;;2.65;0.88;;;;;;;;;;5064696;28;20111;-52
2022/05/12 06:55:20;;;;;;;3.17;0.95;;;;;;;;;;5066449;28;20035;-51
2022/05/12 06:57:47;;;;;;;4.70;0.70;;;;;;;;;;5060595;28;20380;-52
2022/05/12 07:00:16;;;;;;;1.85;0.50;;;;;;;;;;5064893;28;20020;-50
2022/05/12 07:02:42;;;;;;;3.17;0.60;;;;;;;;;;5064422;28;20038;-51
2022/05/12 07:05:11;;;;;;;0.55;0.40;;;;;;;;;;5075960;28;20032;-52
2022/05/12 07:07:37;;;;;;;1.90;0.65;;;;;;;;;;5054740;28;20090;-52
2022/05/12 07:10:04;;;;;;;2.90;0.60;;;;;;;;;;5059193;28;20063;-54
2022/05/12 07:12:30;;;;;;;1.20;0.40;;;;;;;;;;5063759;28;20035;-53
2022/05/12 07:14:56;;;;;;;2.13;0.50;;;;;;;;;;5063904;28;20028;-50
2022/05/12 07:17:23;;;;;;;0.73;0.40;;;;;;;;;;5065538;28;20025;-50
2022/05/12 07:19:50;;;;;;;3.90;0.70;;;;;;;;;;5057833;28;20044;-50
2022/05/12 07:27:45;;;;;;;2.53;0.60;;;;;;;;;;5054580;28;20048;-50
2022/05/12 07:30:11;;;;;;;1.75;0.70;;;;;;;;;;5055868;28;20488;-50
2022/05/12 07:32:37;;;;;;;2.88;0.50;;;;;;;;;;5065104;28;20028;-51
2022/05/12 07:35:07;;;;;;;1.38;0.60;;;;;;;;;;5068768;28;20025;-51
2022/05/12 07:37:33;;;;;;;1.27;0.55;;;;;;;;;;5067176;28;20047;-52
2022/05/12 07:39:59;;;;;;;0.90;0.30;;;;;;;;;;5068084;28;20037;-54
2022/05/12 07:42:25;;;;;;;1.38;0.32;;;;;;;;;;5081167;28;20067;-52
2022/05/12 07:44:51;;;;;;;2.78;0.40;;;;;;;;;;5065738;28;20033;-49
2022/05/12 07:47:19;;;;;;;2.22;0.65;;;;;;;;;;5079500;28;20032;-52
2022/05/12 07:49:45;;;;;;;0.45;0.40;;;;;;;;;;5055929;28;20029;-51
2022/05/12 07:52:14;;;;;;;0.60;0.20;;;;;;;;;;5066143;28;20020;-50
2022/05/12 07:54:40;;;;;;;3.40;0.50;;;;;;;;;;5064777;28;20166;-50
2022/05/12 07:57:06;;;;;;;3.50;0.50;;;;;;;;;;5058735;28;20578;-51
2022/05/12 07:59:32;;;;;;;2.33;0.30;;;;;;;;;;5048120;28;20025;-50
2022/05/12 08:01:58;;;;;;;1.50;0.45;;;;;;;;;;5050885;28;20075;-50
2022/05/12 08:04:25;;;;;;;7.10;0.70;;;;;;;;;;5063270;28;20142;-51
2022/05/12 08:06:51;;;;;;;1.45;0.50;;;;;;;;;;5065523;28;20021;-51
2022/05/12 08:09:17;;;;;;;1.02;0.50;;;;;;;;;;5068327;28;20423;-50
2022/05/12 08:11:42;;;;;;;1.13;0.40;;;;;;;;;;5066232;28;20139;-52
2022/05/12 08:14:09;;;;;;;2.80;0.43;;;;;;;;;;5068461;28;20021;-51
2022/05/12 08:16:35;;;;;;;0.88;0.35;;;;;;;;;;5062743;28;20400;-51
2022/05/12 08:19:01;;;;;;;2.42;0.40;;;;;;;;;;5059832;28;20044;-50
2022/05/12 08:21:27;;;;;;;3.72;0.70;;;;;;;;;;5074718;28;20046;-50
2022/05/12 08:23:53;;;;;;;1.98;0.45;;;;;;;;;;5062287;28;20051;-50
2022/05/12 08:26:19;;;;;;;10.77;0.73;;;;;;;;;;5063626;28;20029;-50
2022/05/12 08:28:47;;;;;;;1.20;0.60;;;;;;;;;;5061766;28;20033;-50
2022/05/12 08:31:13;;;;;;;2.95;0.60;;;;;;;;;;5062161;28;20061;-50
2022/05/12 08:33:39;;;;;;;0.65;0.47;;;;;;;;;;5068895;28;20056;-50
2022/05/12 08:36:05;;;;;;;0.75;0.38;;;;;;;;;;5063720;28;20051;-50
2022/05/12 08:38:34;;;;;;;2.80;0.70;;;;;;;;;;5073475;28;20476;-50
2022/05/12 08:41:03;;;;;;;1.42;0.38;;;;;;;;;;5075678;28;20085;-51
2022/05/12 08:43:35;;;;;;;5.00;0.65;;;;;;;;;;5078466;28;20036;-52
2022/05/12 08:46:03;;;;;;;1.45;0.50;;;;;;;;;;5061529;28;20029;-50
2022/05/12 08:48:29;;;;;;;4.28;0.75;;;;;;;;;;5058939;28;20115;-50
2022/05/12 08:50:56;;;;;;;0.98;0.50;;;;;;;;;;5056755;28;20095;-51
2022/05/12 08:53:25;;;;;;;4.45;0.70;;;;;;;;;;5064539;28;20033;-51
2022/05/12 08:55:53;;;;;;;1.25;0.60;;;;;;;;;;5053475;28;20033;-54
2022/05/12 08:58:25;;;;;;;1.33;0.38;;;;;;;;;;5065708;28;20036;-54
2022/05/12 09:01:08;;;;;;;0.93;0.43;;;;;;;;;;5055716;28;20035;-50
2022/05/12 09:03:52;;;;;;;2.55;0.60;;;;;;;;;;5067547;28;20040;-52
2022/05/12 09:06:22;;;;;;;1.05;0.40;;;;;;;;;;5063939;28;20025;-50
2022/05/12 09:08:59;;;;;;;2.00;0.65;;;;;;;;;;5065349;28;20041;-50
2022/05/12 09:11:27;;;;;;;0.73;0.40;;;;;;;;;;5067602;28;20021;-51
2022/05/12 09:13:54;;;;;;;1.08;0.50;;;;;;;;;;5062296;28;20025;-54
2022/05/12 09:16:20;;;;;;;0.57;0.30;;;;;;;;;;5070054;28;20384;-51
2022/05/12 09:18:46;;;;;;;2.58;0.50;;;;;;;;;;5065151;28;20063;-51
2022/05/12 09:21:14;;;;;;;2.70;0.50;;;;;;;;;;5055082;28;20407;-50
2022/05/12 09:23:40;;;;;;;2.45;0.70;;;;;;;;;;5069361;28;20043;-50
2022/05/12 09:26:25;;;;;;;3.17;0.50;;;;;;;;;;5062360;28;20028;-49
2022/05/12 09:28:51;;;;;;;2.53;0.32;;;;;;;;;;5058583;28;20036;-50
2022/05/12 09:31:19;;;;;;;1.33;0.50;;;;;;;;;;5058112;28;20032;-50
2022/05/12 09:33:46;;;;;;;1.33;0.52;;;;;;;;;;5061408;28;20029;-51
2022/05/12 09:36:24;;;;;;;1.52;0.57;;;;;;;;;;5062465;28;20127;-50
2022/05/12 09:38:54;;;;;;;1.88;0.43;;;;;;;;;;5063466;28;20024;-50
2022/05/12 09:41:40;;;;;;;1.08;0.57;;;;;;;;;;5075584;28;20024;-51
2022/05/12 09:44:22;;;;;;;4.55;0.77;;;;;;;;;;5056722;28;20060;-51
2022/05/12 09:46:56;;;;;;;1.27;0.50;;;;;;;;;;5061944;28;20040;-50
2022/05/12 09:49:24;;;;;;;2.88;0.57;;;;;;;;;;5061701;28;20111;-51
2022/05/12 09:51:50;;;;;;;1.10;0.50;;;;;;;;;;5062960;28;20128;-51
2022/05/12 09:54:30;;;;;;;2.47;0.73;;;;;;;;;;5059347;28;20021;-50
2022/05/12 09:57:14;;;;;;;3.90;0.45;;;;;;;;;;5063519;28;20039;-51
2022/05/12 09:59:41;;;;;;;2.45;0.45;;;;;;;;;;5065287;28;20063;-51
2022/05/12 10:07:53;;;;;;;1.27;0.43;;;;;;;;;;5062305;28;20039;-51
2022/05/12 10:08:02;;;;;;;3.15;0.65;;;;;;;;;;5064520;28;20519;-51
2022/05/12 10:10:30;;;;;;;2.22;0.43;;;;;;;;;;5061109;28;20145;-51
2022/05/12 10:12:58;;;;;;;1.48;0.40;;;;;;;;;;5064911;28;20028;-50
2022/05/12 10:15:29;;;;;;;2.80;0.88;;;;;;;;;;5065355;28;20029;-51
2022/05/12 10:18:15;;;;;;;2.30;0.40;;;;;;;;;;5065052;28;20031;-50
2022/05/12 10:20:42;;;;;;;1.50;0.40;;;;;;;;;;5060419;28;20080;-51
2022/05/12 10:23:16;;;;;;;0.90;0.50;;;;;;;;;;5058695;28;20024;-49
2022/05/12 10:26:01;;;;;;;2.03;0.63;;;;;;;;;;5061371;28;20037;-50
2022/05/12 10:28:45;;;;;;;3.45;0.60;;;;;;;;;;5064821;28;20068;-52
2022/05/12 10:31:29;;;;;;;0.88;0.40;;;;;;;;;;5070157;28;20385;-50
2022/05/12 10:34:01;;;;;;;3.45;0.50;;;;;;;;;;5059926;28;20025;-50
2022/05/12 10:36:46;;;;;;;1.95;0.60;;;;;;;;;;5064604;28;20365;-50
2022/05/12 10:39:24;;;;;;;0.50;0.30;;;;;;;;;;5056618;28;20040;-50
2022/05/12 10:42:08;;;;;;;1.58;0.43;;;;;;;;;;5066079;28;20036;-49
2022/05/12 10:44:34;;;;;;;;;;;;;;;;;;5055783;28;20484;-52
2022/05/12 10:47:19;;;;;;;1.27;0.68;;;;;;;;;;5060317;28;19998;-51
2022/05/12 10:49:53;;;;;;;2.20;0.75;;;;;;;;;;5058733;28;20443;-50
2022/05/12 10:52:35;;;;;;;2.28;0.63;;;;;;;;;;5062389;28;20043;-52
2022/05/12 10:55:18;;;;;;;0.95;0.50;;;;;;;;;;5070509;28;20028;-50
2022/05/12 10:58:03;;;;;;;3.72;0.63;;;;;;;;;;5063694;28;20031;-51
2022/05/12 11:00:42;;;;;;;1.95;0.70;;;;;;;;;;5069298;28;20029;-53
2022/05/12 11:03:14;;;;;;;1.58;0.35;;;;;;;;;;5066525;28;20052;-52
2022/05/12 11:05:43;;;;;;;3.88;0.80;;;;;;;;;;5053180;28;20031;-52
2022/05/12 11:08:17;;;;;;;1.38;0.50;;;;;;;;;;5061631;28;20107;-51
2022/05/12 11:10:51;;;;;;;1.35;0.40;;;;;;;;;;5043923;28;20044;-51
2022/05/12 11:13:24;;;;;;;0.75;0.30;;;;;;;;;;5057600;28;20024;-52
2022/05/12 11:15:59;;;;;;;3.05;0.60;;;;;;;;;;5062506;28;20035;-55
2022/05/12 11:18:38;;;;;;;0.22;0.10;;;;;;;;;;5065376;28;20059;-53
2022/05/12 11:21:25;;;;;;;1.90;0.43;;;;;;;;;;5056938;28;20045;-51
2022/05/12 11:24:10;;;;;;;1.02;0.28;;;;;;;;;;5064797;28;20036;-51
2022/05/12 11:26:36;;;;;;;3.92;0.73;;;;;;;;;;5059976;28;22469;-52
2022/05/12 11:32:14;;;;;;;2.53;0.32;;;;;;;;;;5060928;28;20040;-51
2022/05/12 11:34:48;;;;;;;0.77;0.40;;;;;;;;;;5058394;28;20017;-51
2022/05/12 11:37:32;;;;;;;1.45;0.40;;;;;;;;;;5055989;28;20481;-51
2022/05/12 11:39:59;;;;;;;1.73;0.40;;;;;;;;;;5061706;28;20484;-53
2022/05/12 11:42:28;;;;;;;7.93;0.73;;;;;;;;;;5067412;28;20387;-50
2022/05/12 11:44:54;;;;;;;1.23;0.40;;;;;;;;;;5057111;28;20037;-51
2022/05/12 11:47:32;;;;;;;2.10;0.47;;;;;;;;;;5057154;28;20078;-51
2022/05/12 11:50:06;;;;;;;0.85;0.38;;;;;;;;;;5057352;28;20514;-51
2022/05/12 11:52:32;;;;;;;0.85;0.40;;;;;;;;;;5057416;28;20031;-50
2022/05/12 11:55:01;;;;;;;2.05;0.43;;;;;;;;;;5052455;28;20028;-54
2022/05/12 11:57:38;;;;;;;2.67;0.52;;;;;;;;;;5056879;28;20040;-51
2022/05/12 12:00:08;;;;;;;2.30;0.50;;;;;;;;;;5065279;28;20032;-50
2022/05/12 12:02:35;;;;;;;1.58;0.30;;;;;;;;;;5064028;28;20044;-51
2022/05/12 12:05:03;;;;;;;0.90;0.45;;;;;;;;;;5066727;28;20032;-51
2022/05/12 12:07:32;;;;;;;1.42;0.30;;;;;;;;;;5060550;28;20394;-51
2022/05/12 12:10:09;;;;;;;3.00;0.30;;;;;;;;;;5056090;28;20025;-55
2022/05/12 12:12:41;;;;;;;0.57;0.20;;;;;;;;;;5069907;28;20040;-54
2022/05/12 12:15:11;;;;;;;3.35;0.40;;;;;;;;;;5062954;28;20078;-50
2022/05/12 12:17:39;;;;;;;1.48;0.60;;;;;;;;;;5059899;28;20017;-52
2022/05/12 12:20:08;;;;;;;13.40;0.98;;;;;;;;;;5062394;28;20068;-52
2022/05/12 12:22:47;;;;;;;0.25;0.20;;;;;;;;;;5063149;28;20537;-53
2022/05/12 12:25:19;;;;;;;1.75;0.38;;;;;;;;;;5067824;28;20514;-53
2022/05/12 12:27:57;;;;;;;0.75;0.20;;;;;;;;;;5065731;28;20025;-52
2022/05/12 12:30:25;;;;;;;1.52;0.30;;;;;;;;;;5059322;28;20127;-53
2022/05/12 12:33:14;;;;;;;2.28;0.40;;;;;;;;;;5068835;28;20046;-51
2022/05/12 12:35:55;;;;;;;0.68;0.20;;;;;;;;;;5047618;28;20040;-52
2022/05/12 12:38:40;;;;;;;2.13;0.45;;;;;;;;;;5060713;28;20107;-53
2022/05/12 12:41:06;;;;;;;1.65;0.30;;;;;;;;;;5070717;28;20040;-54
2022/05/12 12:43:37;;;;;;;1.25;0.38;;;;;;;;;;5064559;28;20032;-51
2022/05/12 12:46:18;;;;;;;2.10;0.20;;;;;;;;;;5056695;28;20025;-54
2022/05/12 12:48:48;;;;;;;1.33;0.65;;;;;;;;;;5072093;28;20031;-52
2022/05/12 12:51:26;;;;;;;0.60;0.20;;;;;;;;;;5060799;28;20025;-54
2022/05/12 12:56:37;;;;;;;0.95;0.30;;;;;;;;;;5059807;28;20032;-54
2022/05/12 12:59:06;;;;;;;2.05;0.30;;;;;;;;;;5073360;28;20063;-54
2022/05/12 13:01:44;;;;;;;1.23;0.30;;;;;;;;;;5072465;28;20443;-52
2022/05/12 13:04:10;;;;;;;0.73;0.35;;;;;;;;;;5068658;28;20086;-52
2022/05/12 13:06:37;;;;;;;0.73;0.20;;;;;;;;;;5071743;28;20028;-53
2022/05/12 13:09:09;;;;;;;1.65;0.60;;;;;;;;;;5062882;28;20676;-51
2022/05/12 13:11:38;;;;;;;1.58;0.40;;;;;;;;;;5069774;28;20020;-51
2022/05/12 13:14:04;;;;;;;0.93;0.47;;;;;;;;;;5061792;28;20025;-51
2022/05/12 13:16:35;;;;;;;1.98;0.60;;;;;;;;;;5069635;28;20373;-51
2022/05/12 13:19:01;;;;;;;1.20;0.30;;;;;;;;;;5071674;28;20043;-50
2022/05/12 13:21:31;;;;;;;2.35;0.30;;;;;;;;;;5072633;28;20127;-51
2022/05/12 13:24:12;;;;;;;2.47;0.50;;;;;;;;;;5070769;28;20033;-53
2022/05/12 13:26:38;;;;;;;2.70;0.13;;;;;;;;;;5064545;28;20460;-50
2022/05/12 13:29:06;;;;;;;0.80;0.30;;;;;;;;;;5070980;28;20056;-51
2022/05/12 13:31:35;;;;;;;1.90;0.30;;;;;;;;;;5058492;28;20082;-51
2022/05/12 13:34:04;;;;;;;0.82;0.20;;;;;;;;;;5067297;28;20560;-50
2022/05/12 13:36:32;;;;;;;1.63;0.28;;;;;;;;;;5072294;28;20144;-51
2022/05/12 13:38:58;;;;;;;6.00;0.52;;;;;;;;;;5060296;28;20028;-53
2022/05/12 13:41:30;;;;;;;0.77;0.22;;;;;;;;;;5065259;28;20107;-51
2022/05/12 13:44:08;;;;;;;1.05;0.20;;;;;;;;;;5068337;28;20102;-54
2022/05/12 13:46:36;;;;;;;1.38;0.30;;;;;;;;;;5059943;28;20025;-54
2022/05/12 13:49:07;;;;;;;1.63;0.20;;;;;;;;;;5064362;28;20124;-52
2022/05/12 13:51:39;;;;;;;1.20;0.35;;;;;;;;;;5060241;28;20483;-52
2022/05/12 13:54:08;;;;;;;1.90;0.40;;;;;;;;;;5066168;28;20103;-53
2022/05/12 13:56:34;;;;;;;0.55;0.10;;;;;;;;;;5067300;28;20472;-52
2022/05/12 13:59:13;;;;;;;2.15;0.22;;;;;;;;;;5066071;28;20040;-53
2022/05/12 14:01:39;;;;;;;3.72;0.30;;;;;;;;;;5071652;28;20107;-53
2022/05/12 14:04:11;;;;;;;2.25;0.20;;;;;;;;;;5064149;28;20032;-51
2022/05/12 14:07:04;;;;;;;1.52;0.30;;;;;;;;;;5049550;28;20032;-50
2022/05/12 14:09:32;;;;;;;0.30;0.20;;;;;;;;;;5053561;28;20085;-53
2022/05/12 14:11:59;;;;;;;0.68;0.10;;;;;;;;;;5061207;28;20059;-53
2022/05/12 14:20:14;;;;;;;0.98;0.13;;;;;;;;;;5055275;28;20068;-53
2022/05/12 14:22:42;;;;;;;1.02;0.15;;;;;;;;;;5066087;28;20032;-53
2022/05/12 14:25:08;;;;;;;0.45;0.15;;;;;;;;;;5066944;28;20020;-54
2022/05/12 14:27:34;;;;;;;3.10;0.55;;;;;;;;;;5056491;28;20098;-50
2022/05/12 14:30:00;;;;;;;1.40;0.20;;;;;;;;;;5051606;28;20039;-53
2022/05/12 14:32:29;;;;;;;1.23;0.40;;;;;;;;;;5070384;28;20048;-52
2022/05/12 14:34:56;;;;;;;1.60;0.35;;;;;;;;;;5068475;28;20574;-53
2022/05/12 14:37:22;;;;;;;8.68;0.40;;;;;;;;;;5062752;28;20025;-54
2022/05/12 14:39:48;;;;;;;2.58;0.20;;;;;;;;;;5063488;28;20103;-53
2022/05/12 14:42:14;;;;;;;0.65;0.15;;;;;;;;;;5068647;28;20082;-51
2022/05/12 14:44:40;;;;;;;1.08;0.20;;;;;;;;;;5060588;28;20032;-52
2022/05/12 14:47:08;;;;;;;3.47;0.30;;;;;;;;;;5061950;28;20021;-53
2022/05/12 14:49:36;;;;;;;1.02;0.10;;;;;;;;;;5067501;28;20028;-53
2022/05/12 14:52:04;;;;;;;1.20;0.55;;;;;;;;;;5066392;28;20036;-52
2022/05/12 14:54:30;;;;;;;2.25;0.30;;;;;;;;;;5070226;28;20085;-52
2022/05/12 14:56:56;;;;;;;2.17;0.30;;;;;;;;;;5064486;28;20131;-53
2022/05/12 14:59:25;;;;;;;0.57;0.10;;;;;;;;;;5070320;28;20103;-53
2022/05/12 15:01:52;;;;;;;1.20;0.30;;;;;;;;;;5063356;28;20058;-52
2022/05/12 15:04:18;;;;;;;0.77;0.30;;;;;;;;;;5062235;28;20040;-55
2022/05/12 15:06:45;;;;;;;1.27;0.20;;;;;;;;;;5070380;28;20059;-54
2022/05/12 15:09:12;;;;;;;1.10;0.35;;;;;;;;;;5069819;28;20032;-52
2022/05/12 15:11:38;;;;;;;2.45;0.30;;;;;;;;;;5063264;28;20071;-52
2022/05/12 15:14:04;;;;;;;1.98;0.35;;;;;;;;;;5059572;28;20028;-54
2022/05/12 15:16:30;;;;;;;1.40;0.30;;;;;;;;;;5056508;28;20029;-51
2022/05/12 15:18:56;;;;;;;0.80;0.17;;;;;;;;;;5054710;28;20530;-51